Time;durP1;ratioP1;P1;durP2;ratioP2;P2;SDS_P1;SDS_P2;PMS_P1;PMS_P2;Temp;Humidity;BMP_temperature;BMP_pressure;BME280_temperature;BME280_humidity;BME280_pressure;Samples;Min_cycle;Max_cycle;Signal;HPM_P1;HPM_P2
2023/12/19 00:01:05;;;;;;;;;;;;;;;12.10;78.21;101490.53;7357029;19;19919;-67
2023/12/19 00:03:31;;;;;;;;;;;;;;;12.08;77.96;101489.72;7355926;19;20617;-67
2023/12/19 00:05:56;;;;;;;;;;;;;;;12.07;78.12;101493.25;7350430;19;19915;-67
2023/12/19 00:08:21;;;;;;;;;;;;;;;12.05;78.34;101497.63;7357177;19;19919;-66
2023/12/19 00:10:47;;;;;;;;;;;;;;;12.05;78.41;101501.97;7352839;19;20626;-67
2023/12/19 00:13:12;;;;;;;;;;;;;;;12.04;78.43;101495.03;7355766;19;19927;-67
2023/12/19 00:15:38;;;;;;;;;;;;;;;12.02;78.35;101492.44;7355011;19;19919;-67
2023/12/19 00:18:03;;;;;;;;;;;;;;;12.02;78.23;101497.69;7358564;19;19978;-68
2023/12/19 00:20:31;;;;;;;;;;;;;;;12.01;78.05;101503.78;7356777;19;19926;-66
2023/12/19 00:22:56;;;;;;;;;;;;;;;11.99;78.21;101508.19;7352695;19;20867;-67
2023/12/19 00:25:25;;;;;;;;;;;;;;;12.00;78.46;101509.06;7350872;19;19919;-67
2023/12/19 00:27:51;;;;;;;;;;;;;;;11.98;78.08;101519.56;7356187;19;19944;-68
2023/12/19 00:30:16;;;;;;;;;;;;;;;11.98;78.04;101516.06;7355131;19;19911;-66
2023/12/19 00:32:41;;;;;;;;;;;;;;;11.97;78.44;101520.44;7354382;19;20002;-67
2023/12/19 00:35:08;;;;;;;;;;;;;;;11.85;78.10;101497.91;7356617;19;19939;-67
2023/12/19 00:37:33;;;;;;;;;;;;;;;11.94;78.45;101510.00;7360455;19;19930;-67
2023/12/19 00:39:59;;;;;;;;;;;;;;;11.93;78.29;101503.06;7356487;19;19943;-67
2023/12/19 00:42:24;;;;;;;;;;;;;;;11.93;78.46;101500.44;7350256;19;20029;-67
2023/12/19 00:44:49;;;;;;;;;;;;;;;11.92;78.45;101506.56;7347267;19;19915;-67
2023/12/19 00:47:14;;;;;;;;;;;;;;;11.91;78.39;101497.84;7352667;19;19926;-67
2023/12/19 00:49:40;;;;;;;;;;;;;;;11.91;77.99;101489.09;7356335;19;19926;-67
2023/12/19 00:52:05;;;;;;;;;;;;;;;11.84;78.03;101472.66;7356026;19;19926;-67
2023/12/19 00:54:30;;;;;;;;;;;;;;;11.90;78.21;101495.25;7349816;19;19918;-67
2023/12/19 00:56:56;;;;;;;;;;;;;;;11.90;78.10;101490.88;7357963;19;20682;-67
2023/12/19 00:59:21;;;;;;;;;;;;;;;11.91;78.44;101486.50;7349793;19;19954;-66
2023/12/19 01:01:47;;;;;;;;;;;;;;;11.90;78.44;101487.38;7357745;19;19925;-69
2023/12/19 01:04:12;;;;;;;;;;;;;;;11.90;78.23;101480.41;7356997;19;20626;-67
2023/12/19 01:06:37;;;;;;;;;;;;;;;11.91;78.34;101479.53;7358983;19;19917;-66
2023/12/19 01:09:04;;;;;;;;;;;;;;;11.91;78.18;101481.25;7353301;19;19934;-67
2023/12/19 01:11:29;;;;;;;;;;;;;;;11.91;78.54;101474.28;7362743;19;19915;-68
2023/12/19 01:13:54;;;;;;;;;;;;;;;11.92;78.14;101475.16;7360585;19;19930;-67
2023/12/19 01:16:20;;;;;;;;;;;;;;;11.92;78.48;101480.41;7355173;19;19926;-67
2023/12/19 01:18:45;;;;;;;;;;;;;;;11.93;78.28;101496.06;7363174;19;20860;-67
2023/12/19 01:21:10;;;;;;;;;;;;;;;11.92;78.17;101480.41;7364572;19;19910;-67
2023/12/19 01:23:35;;;;;;;;;;;;;;;11.92;78.40;101483.00;7366195;19;19927;-67
2023/12/19 01:26:01;;;;;;;;;;;;;;;11.91;78.23;101478.63;7362359;19;20235;-67
2023/12/19 01:28:26;;;;;;;;;;;;;;;11.91;77.89;101465.56;7363327;19;19923;-67
2023/12/19 01:30:51;;;;;;;;;;;;;;;11.88;77.90;101463.88;7363214;19;19926;-67
2023/12/19 01:33:17;;;;;;;;;;;;;;;11.88;78.08;101466.47;7359127;19;19922;-67
2023/12/19 01:35:42;;;;;;;;;;;;;;;11.87;78.20;101466.50;7366678;19;19940;-66
2023/12/19 01:38:07;;;;;;;;;;;;;;;11.85;78.01;101460.41;7363113;19;19926;-67
2023/12/19 01:40:32;;;;;;;;;;;;;;;11.84;77.90;101461.31;7361638;19;19919;-67
2023/12/19 01:42:58;;;;;;;;;;;;;;;11.84;78.28;101466.56;7356380;19;19914;-68
2023/12/19 01:45:25;;;;;;;;;;;;;;;11.82;78.23;101463.97;7358891;19;19926;-67
2023/12/19 01:47:50;;;;;;;;;;;;;;;11.81;77.95;101461.31;7363076;19;19978;-67
2023/12/19 01:50:16;;;;;;;;;;;;;;;11.81;78.22;101462.22;7365018;19;20022;-66
2023/12/19 01:52:43;;;;;;;;;;;;;;;11.82;78.06;101460.50;7356697;19;19915;-67
2023/12/19 01:55:09;;;;;;;;;;;;;;;11.80;78.38;101455.22;7364870;19;19934;-67
2023/12/19 01:57:35;;;;;;;;;;;;;;;11.81;78.15;101446.50;7358266;19;20783;-68
2023/12/19 02:00:00;;;;;;;;;;;;;;;11.83;78.04;101454.38;7363932;19;20361;-67
2023/12/19 02:02:25;;;;;;;;;;;;;;;11.81;77.94;101464.81;7359826;19;19919;-67
2023/12/19 02:04:52;;;;;;;;;;;;;;;11.81;78.33;101454.38;7361249;19;20353;-67
2023/12/19 02:07:18;;;;;;;;;;;;;;;11.82;78.39;101457.88;7364095;19;20336;-67
2023/12/19 02:09:43;;;;;;;;;;;;;;;11.81;78.02;101450.84;7360347;19;19919;-68
2023/12/19 02:12:08;;;;;;;;;;;;;;;11.82;78.38;101457.88;7363549;19;20536;-67
2023/12/19 02:14:33;;;;;;;;;;;;;;;11.82;78.04;101463.09;7365634;19;19940;-67
2023/12/19 02:16:59;;;;;;;;;;;;;;;11.81;78.21;101459.59;7356433;19;19923;-67
2023/12/19 02:19:25;;;;;;;;;;;;;;;11.81;78.32;101461.31;7363268;19;19932;-67
2023/12/19 02:21:50;;;;;;;;;;;;;;;11.81;78.02;101456.09;7360891;19;19984;-68
2023/12/19 02:24:16;;;;;;;;;;;;;;;11.81;78.30;101456.97;7361077;19;19998;-68
2023/12/19 02:26:41;;;;;;;;;;;;;;;11.81;78.06;101446.50;7363318;19;19949;-67
2023/12/19 02:29:06;;;;;;;;;;;;;;;11.81;77.94;101446.50;7365798;19;19923;-67
2023/12/19 02:31:31;;;;;;;;;;;;;;;11.81;78.22;101445.63;7363117;19;19919;-67
2023/12/19 02:33:56;;;;;;;;;;;;;;;11.81;78.24;101446.50;7361282;19;19947;-67
2023/12/19 02:36:22;;;;;;;;;;;;;;;11.81;78.31;101446.50;7358116;19;19930;-67
2023/12/19 02:38:47;;;;;;;;;;;;;;;11.82;78.29;101445.66;7360437;19;20382;-67
2023/12/19 02:41:12;;;;;;;;;;;;;;;11.81;78.16;101435.16;7362352;19;19919;-67
2023/12/19 02:43:38;;;;;;;;;;;;;;;11.80;78.26;101438.66;7357347;19;20323;-67
2023/12/19 02:46:03;;;;;;;;;;;;;;;11.78;78.26;101445.69;7362973;19;19922;-67
2023/12/19 02:48:29;;;;;;;;;;;;;;;11.77;77.80;101444.81;7360181;19;19934;-67
2023/12/19 02:50:54;;;;;;;;;;;;;;;11.75;78.15;101436.13;7358128;19;20443;-67
2023/12/19 02:53:19;;;;;;;;;;;;;;;11.75;78.19;101443.09;7357724;19;19923;-67
2023/12/19 02:55:45;;;;;;;;;;;;;;;11.74;78.25;101449.22;7362689;19;19922;-67
2023/12/19 02:58:10;;;;;;;;;;;;;;;11.74;77.81;101449.22;7357893;19;19990;-67
2023/12/19 03:00:35;;;;;;;;;;;;;;;11.74;77.97;101446.63;7363940;19;20368;-67
2023/12/19 03:03:00;;;;;;;;;;;;;;;11.74;77.88;101438.75;7363017;19;20378;-67
2023/12/19 03:05:26;;;;;;;;;;;;;;;11.72;78.22;101446.66;7365308;19;20590;-67
2023/12/19 03:07:51;;;;;;;;;;;;;;;11.71;78.20;101450.16;7362249;19;19948;-67
2023/12/19 03:10:16;;;;;;;;;;;;;;;11.70;77.75;101454.50;7365471;19;19930;-67
2023/12/19 03:12:41;;;;;;;;;;;;;;;11.70;78.19;101448.41;7358516;19;19918;-66
2023/12/19 03:15:07;;;;;;;;;;;;;;;11.69;77.93;101452.78;7362406;19;20276;-67
2023/12/19 03:17:32;;;;;;;;;;;;;;;11.68;77.80;101439.72;7365487;19;19932;-68
2023/12/19 03:19:57;;;;;;;;;;;;;;;11.66;77.97;101439.75;7356339;19;19919;-67
2023/12/19 03:22:23;;;;;;;;;;;;;;;11.65;78.10;101440.63;7362427;19;19923;-67
2023/12/19 03:24:48;;;;;;;;;;;;;;;11.64;78.17;101444.13;7363980;19;19969;-68
2023/12/19 03:27:13;;;;;;;;;;;;;;;11.63;77.76;101442.41;7358097;19;19927;-68
2023/12/19 03:29:39;;;;;;;;;;;;;;;11.62;78.11;101445.91;7358403;19;20359;-67
2023/12/19 03:32:04;;;;;;;;;;;;;;;11.61;78.15;101438.97;7357647;19;19930;-67
2023/12/19 03:34:29;;;;;;;;;;;;;;;11.61;78.16;101440.72;7359972;19;19919;-68
2023/12/19 03:36:56;;;;;;;;;;;;;;;11.60;77.81;101447.69;7362746;19;19911;-68
2023/12/19 03:39:21;;;;;;;;;;;;;;;11.60;78.20;101447.69;7362455;19;19926;-67
2023/12/19 03:41:47;;;;;;;;;;;;;;;11.59;77.88;101445.09;7355095;19;19915;-67
2023/12/19 03:44:12;;;;;;;;;;;;;;;11.58;77.85;101446.84;7357825;19;19943;-66
2023/12/19 03:46:37;;;;;;;;;;;;;;;11.58;77.71;101449.47;7363888;19;19926;-67
2023/12/19 03:49:02;;;;;;;;;;;;;;;11.57;78.19;101452.13;7360497;19;19957;-68
2023/12/19 03:51:28;;;;;;;;;;;;;;;11.56;78.21;101453.00;7362719;19;19915;-68
2023/12/19 03:53:53;;;;;;;;;;;;;;;11.56;78.06;101448.63;7360586;19;19919;-67
2023/12/19 03:56:18;;;;;;;;;;;;;;;11.56;78.24;101445.16;7365109;19;20305;-67
2023/12/19 03:58:43;;;;;;;;;;;;;;;11.56;78.26;101456.47;7351859;19;20525;-68
2023/12/19 04:01:10;;;;;;;;;;;;;;;11.55;78.18;101439.03;7360723;19;19943;-68
2023/12/19 04:03:36;;;;;;;;;;;;;;;11.55;78.24;101433.81;7333361;19;20376;-67
2023/12/19 04:06:01;;;;;;;;;;;;;;;11.54;77.84;101442.53;7362150;19;19922;-67
2023/12/19 04:08:27;;;;;;;;;;;;;;;11.54;77.90;101442.53;7364009;19;19919;-67
2023/12/19 04:10:52;;;;;;;;;;;;;;;11.53;77.81;101447.81;7358924;19;19923;-67
2023/12/19 04:13:17;;;;;;;;;;;;;;;11.52;77.93;101453.94;7360965;19;19982;-67
2023/12/19 04:15:43;;;;;;;;;;;;;;;11.50;77.95;101445.22;7358878;19;19922;-67
2023/12/19 04:18:08;;;;;;;;;;;;;;;11.48;78.08;101455.72;7325510;19;19926;-67
2023/12/19 04:20:34;;;;;;;;;;;;;;;11.45;77.92;101458.38;7362073;19;19919;-67
2023/12/19 04:22:59;;;;;;;;;;;;;;;11.41;77.96;101461.94;7363231;19;19915;-67
2023/12/19 04:25:24;;;;;;;;;;;;;;;11.38;77.96;101451.50;7360620;19;19921;-68
2023/12/19 04:27:49;;;;;;;;;;;;;;;11.35;77.57;101462.00;7358065;19;20277;-67
2023/12/19 04:30:15;;;;;;;;;;;;;;;11.31;77.87;101466.44;7363071;19;19939;-68
2023/12/19 04:32:40;;;;;;;;;;;;;;;11.30;78.06;101474.25;7357200;19;19923;-67
2023/12/19 04:35:06;;;;;;;;;;;;;;;11.27;77.69;101476.94;7361622;19;20388;-67
2023/12/19 04:37:31;;;;;;;;;;;;;;;11.25;77.85;101473.47;7354318;19;19911;-67
2023/12/19 04:39:57;;;;;;;;;;;;;;;11.23;77.71;101470.00;7360200;19;19915;-68
2023/12/19 04:42:23;;;;;;;;;;;;;;;11.21;78.14;101469.19;7363604;19;19934;-67
2023/12/19 04:44:48;;;;;;;;;;;;;;;11.18;77.73;101473.53;7360162;19;19936;-67
2023/12/19 04:47:13;;;;;;;;;;;;;;;11.18;77.79;101483.16;7361557;19;19947;-67
2023/12/19 04:49:39;;;;;;;;;;;;;;;11.16;78.20;101483.16;7353073;19;20348;-67
2023/12/19 04:52:04;;;;;;;;;;;;;;;11.16;78.14;101485.78;7366461;19;19947;-67
2023/12/19 04:54:30;;;;;;;;;;;;;;;11.15;77.92;101476.22;7366727;19;19986;-68
2023/12/19 04:56:55;;;;;;;;;;;;;;;11.14;78.07;101469.22;7370929;19;19923;-67
2023/12/19 04:59:20;;;;;;;;;;;;;;;11.14;77.90;101487.53;7366072;19;19939;-67
2023/12/19 05:01:46;;;;;;;;;;;;;;;11.13;78.23;101491.03;7370664;19;19926;-67
2023/12/19 05:04:11;;;;;;;;;;;;;;;11.13;78.12;101504.09;7365973;19;19923;-67
2023/12/19 05:06:36;;;;;;;;;;;;;;;11.13;78.03;101514.56;7364044;19;19982;-68
2023/12/19 05:09:02;;;;;;;;;;;;;;;11.13;78.11;101504.09;7366034;19;20438;-67
2023/12/19 05:11:27;;;;;;;;;;;;;;;11.10;77.82;101493.72;7371610;19;19926;-67
2023/12/19 05:13:53;;;;;;;;;;;;;;;11.08;77.74;101500.69;7376197;19;20862;-67
2023/12/19 05:16:19;;;;;;;;;;;;;;;11.06;77.80;101507.69;7370099;19;19922;-67
2023/12/19 05:18:44;;;;;;;;;;;;;;;11.05;77.81;101498.13;7370665;19;19945;-67
2023/12/19 05:21:10;;;;;;;;;;;;;;;11.02;77.57;101495.53;7364933;19;20452;-67
2023/12/19 05:23:36;;;;;;;;;;;;;;;11.02;78.02;101498.16;7366527;19;19919;-67
2023/12/19 05:26:05;;;;;;;;;;;;;;;10.99;78.01;101500.78;7368275;19;19926;-67
2023/12/19 05:28:30;;;;;;;;;;;;;;;10.99;78.06;101495.56;7369339;19;20010;-67
2023/12/19 05:30:56;;;;;;;;;;;;;;;10.97;77.88;101492.13;7364725;19;20460;-68
2023/12/19 05:33:24;;;;;;;;;;;;;;;10.97;77.97;101486.88;7364906;19;20708;-67
2023/12/19 05:35:50;;;;;;;;;;;;;;;10.96;78.13;101493.00;7363009;19;19923;-68
2023/12/19 05:38:16;;;;;;;;;;;;;;;10.95;77.86;101477.31;7360099;19;19960;-67
2023/12/19 05:40:42;;;;;;;;;;;;;;;10.94;78.09;101481.69;7365002;19;20336;-66
2023/12/19 05:43:08;;;;;;;;;;;;;;;10.94;78.11;101492.13;7369333;19;20596;-67
2023/12/19 05:45:33;;;;;;;;;;;;;;;10.93;78.14;101494.78;7361944;19;19934;-67
2023/12/19 05:47:59;;;;;;;;;;;;;;;10.92;77.79;101501.75;7369045;19;19915;-67
2023/12/19 05:50:24;;;;;;;;;;;;;;;10.91;77.74;101497.41;7363022;19;20816;-67
2023/12/19 05:52:49;;;;;;;;;;;;;;;10.90;77.66;101487.84;7362260;19;19951;-67
2023/12/19 05:55:14;;;;;;;;;;;;;;;10.88;78.08;101481.75;7366462;19;19930;-67
2023/12/19 05:57:40;;;;;;;;;;;;;;;10.88;77.66;101492.22;7362623;19;19998;-67
2023/12/19 06:00:06;;;;;;;;;;;;;;;10.86;77.61;101499.22;7367716;19;19927;-67
2023/12/19 06:02:31;;;;;;;;;;;;;;;10.85;77.98;101502.72;7364059;19;19914;-67
2023/12/19 06:04:58;;;;;;;;;;;;;;;10.84;77.64;101506.19;7365506;19;19930;-67
2023/12/19 06:07:23;;;;;;;;;;;;;;;10.81;77.70;101507.09;7363438;19;19910;-67
2023/12/19 06:09:49;;;;;;;;;;;;;;;10.79;77.86;101515.81;7365212;19;19934;-68
2023/12/19 06:12:14;;;;;;;;;;;;;;;10.76;77.99;101505.44;7367226;19;20536;-67
2023/12/19 06:14:39;;;;;;;;;;;;;;;10.75;77.89;101512.41;7366179;19;19938;-67
2023/12/19 06:17:05;;;;;;;;;;;;;;;10.73;78.02;101503.69;7364014;19;19922;-67
2023/12/19 06:19:30;;;;;;;;;;;;;;;10.72;77.98;101511.56;7365684;19;20616;-68
2023/12/19 06:21:55;;;;;;;;;;;;;;;10.70;77.75;101508.09;7365817;19;19922;-68
2023/12/19 06:24:20;;;;;;;;;;;;;;;10.68;77.88;101525.53;7367036;19;19915;-67
2023/12/19 06:26:46;;;;;;;;;;;;;;;10.65;77.63;101529.91;7372245;19;19943;-67
2023/12/19 06:29:11;;;;;;;;;;;;;;;10.61;77.65;101525.59;7360118;19;19974;-68
2023/12/19 06:31:43;;;;;;;;;;;;;;;10.60;77.61;101517.78;7364584;19;20360;-67
2023/12/19 06:34:09;;;;;;;;;;;;;;;10.55;77.25;101523.03;7357652;19;19989;-67
2023/12/19 06:36:34;;;;;;;;;;;;;;;10.52;77.58;101530.88;7367983;19;19978;-68
2023/12/19 06:39:00;;;;;;;;;;;;;;;10.51;77.12;101550.06;7358774;19;20456;-67
2023/12/19 06:41:26;;;;;;;;;;;;;;;10.45;77.19;101534.44;7369419;19;19934;-67
2023/12/19 06:43:51;;;;;;;;;;;;;;;10.43;77.45;101549.25;7366692;19;19923;-67
2023/12/19 06:46:17;;;;;;;;;;;;;;;10.40;77.50;101541.47;7360121;19;19922;-67
2023/12/19 06:48:43;;;;;;;;;;;;;;;10.38;77.34;101545.81;7363824;19;19927;-67
2023/12/19 06:51:08;;;;;;;;;;;;;;;10.34;77.20;101549.31;7364525;19;19927;-67
2023/12/19 06:53:33;;;;;;;;;;;;;;;10.31;77.32;101551.97;7361569;19;19935;-68
2023/12/19 06:55:58;;;;;;;;;;;;;;;10.28;77.29;101552.84;7362288;19;19919;-67
2023/12/19 06:58:24;;;;;;;;;;;;;;;10.26;77.28;101569.41;7358691;19;20297;-67
2023/12/19 07:00:49;;;;;;;;;;;;;;;10.22;77.08;101572.88;7364338;19;19915;-67
2023/12/19 07:03:15;;;;;;;;;;;;;;;10.19;77.23;101570.28;7365800;19;19982;-67
2023/12/19 07:05:41;;;;;;;;;;;;;;;10.14;76.92;101576.44;7361867;19;21141;-67
2023/12/19 07:08:06;;;;;;;;;;;;;;;10.12;76.87;101580.78;7366751;19;19921;-67
2023/12/19 07:10:31;;;;;;;;;;;;;;;10.08;77.31;101581.66;7351395;19;19923;-67
2023/12/19 07:12:57;;;;;;;;;;;;;;;10.07;76.98;101574.72;7362481;19;20038;-67
2023/12/19 07:15:22;;;;;;;;;;;;;;;10.05;77.14;101576.47;7360404;19;19931;-67
2023/12/19 07:17:47;;;;;;;;;;;;;;;10.03;77.25;101567.78;7365340;19;19927;-67
2023/12/19 07:20:13;;;;;;;;;;;;;;;10.00;76.90;101572.19;7357576;19;20250;-67
2023/12/19 07:22:40;;;;;;;;;;;;;;;9.97;76.92;101570.44;7365443;19;19935;-67
2023/12/19 07:25:05;;;;;;;;;;;;;;;9.95;77.32;101574.81;7358510;19;20430;-68
2023/12/19 07:27:31;;;;;;;;;;;;;;;9.94;76.87;101578.31;7365931;19;19915;-68
2023/12/19 07:29:57;;;;;;;;;;;;;;;9.91;77.21;101578.31;7364499;19;19931;-67
2023/12/19 07:32:22;;;;;;;;;;;;;;;9.88;76.87;101599.19;7360939;19;19930;-67
2023/12/19 07:34:47;;;;;;;;;;;;;;;9.85;76.89;101591.41;7344158;19;19926;-67
2023/12/19 07:37:12;;;;;;;;;;;;;;;9.82;77.14;101584.44;7355945;19;20399;-67
2023/12/19 07:39:38;;;;;;;;;;;;;;;9.78;77.01;101587.06;7370648;19;20309;-68
2023/12/19 07:42:03;;;;;;;;;;;;;;;9.76;77.14;101591.44;7368812;19;19926;-67
2023/12/19 07:44:28;;;;;;;;;;;;;;;9.73;76.97;101588.81;7358053;19;19927;-67
2023/12/19 07:46:54;;;;;;;;;;;;;;;9.70;76.86;101591.47;7356717;19;19989;-67
2023/12/19 07:49:19;;;;;;;;;;;;;;;9.68;76.60;101595.81;7360594;19;19986;-67
2023/12/19 07:51:44;;;;;;;;;;;;;;;9.64;76.86;101608.03;7360528;19;19915;-67
2023/12/19 07:54:09;;;;;;;;;;;;;;;9.61;77.05;101601.06;7358574;19;20018;-67
2023/12/19 07:56:39;;;;;;;;;;;;;;;9.59;76.80;101600.22;7364724;19;19936;-67
2023/12/19 07:59:04;;;;;;;;;;;;;;;9.56;76.63;101607.16;7362407;19;20316;-67
2023/12/19 08:01:30;;;;;;;;;;;;;;;9.53;77.01;101605.47;7363758;19;19919;-67
2023/12/19 08:03:55;;;;;;;;;;;;;;;9.51;76.71;101604.56;7357464;19;20582;-67
2023/12/19 08:06:20;;;;;;;;;;;;;;;9.49;76.95;101603.72;7369954;19;20377;-67
2023/12/19 08:08:49;;;;;;;;;;;;;;;9.47;76.88;101600.25;7357899;19;19926;-67
2023/12/19 08:11:14;;;;;;;;;;;;;;;9.44;76.53;101597.66;7363797;19;19911;-67
2023/12/19 08:13:40;;;;;;;;;;;;;;;9.41;76.66;101595.06;7362749;19;19926;-67
2023/12/19 08:16:05;;;;;;;;;;;;;;;9.38;76.70;101602.91;7361131;19;19919;-67
2023/12/19 08:18:30;;;;;;;;;;;;;;;9.35;76.78;101608.13;7361732;19;20656;-67
2023/12/19 08:20:56;;;;;;;;;;;;;;;9.31;76.35;101614.22;7360427;19;19914;-67
2023/12/19 08:23:21;;;;;;;;;;;;;;;9.28;76.40;101606.41;7362340;19;20295;-67
2023/12/19 08:25:46;;;;;;;;;;;;;;;9.25;76.33;101601.19;7357460;19;19925;-67
2023/12/19 08:28:11;;;;;;;;;;;;;;;9.21;76.24;101609.88;7368611;19;19961;-67
2023/12/19 08:30:38;;;;;;;;;;;;;;;9.18;76.32;101604.69;7376503;19;19918;-67
2023/12/19 08:33:04;;;;;;;;;;;;;;;9.13;76.33;101601.25;7368056;19;19926;-67
2023/12/19 08:35:29;;;;;;;;;;;;;;;9.09;76.30;101610.78;7363922;19;20458;-67
2023/12/19 08:37:54;;;;;;;;;;;;;;;9.05;75.82;101614.28;7367203;19;20366;-67
2023/12/19 08:40:20;;;;;;;;;;;;;;;9.00;75.77;101614.28;7369177;19;19919;-67
2023/12/19 08:42:45;;;;;;;;;;;;;;;8.94;76.06;101611.69;7368263;19;20860;-67
2023/12/19 08:45:14;;;;;;;;;;;;;;;8.91;75.88;101610.81;7363281;19;19935;-67
2023/12/19 08:47:40;;;;;;;;;;;;;;;8.84;75.69;101607.34;7369538;19;19923;-68
2023/12/19 08:50:08;;;;;;;;;;;;;;;8.79;75.69;101606.50;7371054;19;20298;-67
2023/12/19 08:52:33;;;;;;;;;;;;;;;8.75;75.68;101604.75;7370066;19;19929;-67
2023/12/19 08:54:59;;;;;;;;;;;;;;;8.71;75.76;101610.81;7365515;19;19923;-66
2023/12/19 08:57:24;;;;;;;;;;;;;;;8.67;75.75;101611.69;7363083;19;20435;-67
2023/12/19 08:59:50;;;;;;;;;;;;;;;8.62;75.43;101608.22;7365432;19;20353;-68
2023/12/19 09:02:15;;;;;;;;;;;;;;;8.57;75.49;101613.47;7374229;19;19927;-68
2023/12/19 09:04:40;;;;;;;;;;;;;;;8.52;75.31;101616.06;7365106;19;20006;-67
2023/12/19 09:07:06;;;;;;;;;;;;;;;8.47;75.54;101620.38;7367359;19;19926;-68
2023/12/19 09:09:31;;;;;;;;;;;;;;;8.45;75.52;101618.63;7367236;19;19910;-67
2023/12/19 09:11:56;;;;;;;;;;;;;;;8.41;75.72;101615.16;7366685;19;19955;-68
2023/12/19 09:14:22;;;;;;;;;;;;;;;8.38;75.87;101615.16;7365845;19;19922;-67
2023/12/19 09:16:48;;;;;;;;;;;;;;;8.34;75.83;101623.81;7367102;19;20423;-68
2023/12/19 09:19:14;;;;;;;;;;;;;;;8.30;75.79;101622.06;7362306;19;20479;-67
2023/12/19 09:21:39;;;;;;;;;;;;;;;8.27;75.33;101640.28;7364917;19;19914;-67
2023/12/19 09:24:05;;;;;;;;;;;;;;;8.25;75.40;101644.59;7361421;19;19919;-66
2023/12/19 09:26:31;;;;;;;;;;;;;;;8.23;75.62;101642.00;7367074;19;20698;-67
2023/12/19 09:28:56;;;;;;;;;;;;;;;8.20;75.96;101638.50;7362194;19;19930;-67
2023/12/19 09:31:22;;;;;;;;;;;;;;;8.17;75.62;101630.72;7369176;19;19996;-68
2023/12/19 09:33:48;;;;;;;;;;;;;;;8.15;75.87;101638.50;7361573;19;19919;-67
2023/12/19 09:36:24;;;;;;;;;;;;;;;8.13;75.53;101639.38;7366227;19;19923;-67
2023/12/19 09:38:50;;;;;;;;;;;;;;;8.12;75.83;101642.84;7362955;19;20463;-67
2023/12/19 09:41:16;;;;;;;;;;;;;;;8.10;75.61;101639.34;7361562;19;19919;-66
2023/12/19 09:43:41;;;;;;;;;;;;;;;8.09;76.04;101632.44;7365756;19;19923;-67
2023/12/19 09:46:07;;;;;;;;;;;;;;;8.07;75.85;101630.69;7361652;19;19931;-67
2023/12/19 09:48:34;;;;;;;;;;;;;;;8.06;75.74;101618.56;7360802;19;20388;-67
2023/12/19 09:51:01;;;;;;;;;;;;;;;8.06;75.92;101610.75;7365427;19;20624;-67
2023/12/19 09:53:27;;;;;;;;;;;;;;;8.07;75.86;101625.50;7354892;19;19955;-67
2023/12/19 09:55:52;;;;;;;;;;;;;;;8.07;76.29;101619.44;7366030;19;19927;-67
2023/12/19 09:58:18;;;;;;;;;;;;;;;8.07;76.38;101622.91;7364731;19;19923;-67
2023/12/19 10:00:46;;;;;;;;;;;;;;;8.09;76.59;101622.88;7366673;19;19946;-67
2023/12/19 10:03:11;;;;;;;;;;;;;;;8.11;76.60;101621.19;7363488;19;19929;-68
2023/12/19 10:05:37;;;;;;;;;;;;;;;8.14;76.33;101623.75;7356460;19;19922;-67
2023/12/19 10:08:03;;;;;;;;;;;;;;;8.19;77.06;101629.84;7365357;19;19915;-68
2023/12/19 10:10:47;;;;;;;;;;;;;;;8.28;77.04;101626.41;7367508;19;20368;-67
2023/12/19 10:13:24;;;;;;;;;;;;;;;8.40;77.37;101623.84;7358782;19;20464;-67
2023/12/19 10:15:58;;;;;;;;;;;;;;;8.58;77.91;101629.06;7360870;19;20328;-67
2023/12/19 10:18:23;;;;;;;;;;;;;;;8.77;78.53;101631.69;7359162;19;19935;-67
2023/12/19 10:20:48;;;;;;;;;;;;;;;8.94;77.86;101627.31;7361960;19;19919;-67
2023/12/19 10:23:19;;;;;;;;;;;;;;;9.13;78.39;101635.13;7360253;19;19943;-67
2023/12/19 10:25:51;;;;;;;;;;;;;;;9.27;78.63;101630.72;7363953;19;19994;-67
2023/12/19 10:28:17;;;;;;;;;;;;;;;9.55;79.01;101631.53;7364380;19;19927;-67
2023/12/19 10:30:45;;;;;;;;;;;;;;;9.75;78.45;101626.22;7362462;19;21971;-67
2023/12/19 10:33:10;;;;;;;;;;;;;;;9.97;79.14;101633.06;7365059;19;19923;-67
2023/12/19 10:35:39;;;;;;;;;;;;;;;10.17;78.92;101634.69;7362789;19;19947;-67
2023/12/19 10:38:05;;;;;;;;;;;;;;;10.35;78.85;101626.78;7359587;19;19926;-67
2023/12/19 10:40:31;;;;;;;;;;;;;;;10.52;78.58;101637.97;7365882;19;19919;-67
2023/12/19 10:42:57;;;;;;;;;;;;;;;10.70;78.77;101636.09;7371113;19;20375;-68
2023/12/19 10:45:24;;;;;;;;;;;;;;;10.86;78.52;101635.09;7356985;19;19933;-67
2023/12/19 10:47:49;;;;;;;;;;;;;;;11.02;78.39;101631.44;7361924;19;19995;-68
2023/12/19 10:50:15;;;;;;;;;;;;;;;11.15;77.84;101638.31;7355690;19;20598;-67
2023/12/19 10:52:43;;;;;;;;;;;;;;;11.28;77.88;101632.94;7361861;19;19919;-68
2023/12/19 10:55:10;;;;;;;;;;;;;;;11.37;77.70;101630.22;7359645;19;20486;-67
2023/12/19 10:57:40;;;;;;;;;;;;;;;11.48;77.14;101641.41;7356750;19;20227;-67
2023/12/19 11:00:11;;;;;;;;;;;;;;;11.57;77.44;101636.09;7362393;19;19996;-67
2023/12/19 11:02:45;;;;;;;;;;;;;;;11.69;76.97;101635.06;7360837;19;19944;-67
2023/12/19 11:05:11;;;;;;;;;;;;;;;11.81;77.23;101636.66;7359699;19;20020;-67
2023/12/19 11:07:37;;;;;;;;;;;;;;;11.92;76.62;101633.06;7362227;19;20366;-67
2023/12/19 11:10:06;;;;;;;;;;;;;;;12.03;76.60;101632.91;7363681;19;19918;-67
2023/12/19 11:12:32;;;;;;;;;;;;;;;12.15;76.64;101635.34;7363291;19;19926;-67
2023/12/19 11:14:57;;;;;;;;;;;;;;;12.30;76.41;101634.25;7366467;19;19923;-67
2023/12/19 11:17:26;;;;;;;;;;;;;;;12.44;75.95;101634.91;7367812;19;19910;-67
2023/12/19 11:19:56;;;;;;;;;;;;;;;12.58;76.01;101645.19;7363783;19;20378;-67
2023/12/19 11:22:30;;;;;;;;;;;;;;;12.73;76.14;101642.31;7359409;19;21417;-67
2023/12/19 11:25:01;;;;;;;;;;;;;;;12.87;76.21;101642.06;7358748;19;20319;-67
2023/12/19 11:27:39;;;;;;;;;;;;;;;13.03;75.72;101642.69;7360099;19;20627;-68
2023/12/19 11:30:04;;;;;;;;;;;;;;;13.20;75.71;101645.88;7361327;19;20002;-68
2023/12/19 11:32:29;;;;;;;;;;;;;;;13.38;75.96;101638.56;7363084;19;20003;-67
2023/12/19 11:35:01;;;;;;;;;;;;;;;13.53;74.88;101646.13;7355722;19;19926;-67
2023/12/19 11:37:26;;;;;;;;;;;;;;;13.60;74.82;101634.63;7361879;19;20420;-67
2023/12/19 11:39:51;;;;;;;;;;;;;;;13.64;73.97;101633.69;7356529;19;19982;-67
2023/12/19 11:42:35;;;;;;;;;;;;;;;13.67;74.35;101638.84;7362111;19;19931;-67
2023/12/19 11:45:00;;;;;;;;;;;;;;;13.74;73.99;101637.84;7358969;19;19950;-67
2023/12/19 11:47:28;;;;;;;;;;;;;;;13.76;73.40;101624.69;7359672;19;20560;-67
2023/12/19 11:49:53;;;;;;;;;;;;;;;13.74;73.35;101622.09;7361109;19;20425;-67
2023/12/19 11:52:36;;;;;;;;;;;;;;;13.77;73.25;101616.75;7362361;19;19987;-67
2023/12/19 11:55:03;;;;;;;;;;;;;;;13.82;72.98;101619.28;7361027;19;19923;-67
2023/12/19 11:57:28;;;;;;;;;;;;;;;13.88;72.88;101607.78;7363149;19;19919;-67
2023/12/19 11:59:54;;;;;;;;;;;;;;;13.98;72.99;101606.69;7361368;19;19929;-67
2023/12/19 12:02:36;;;;;;;;;;;;;;;14.10;72.58;101614.31;7361381;19;19968;-67
2023/12/19 12:05:08;;;;;;;;;;;;;;;14.23;72.04;101614.88;7354678;19;19915;-67
2023/12/19 12:07:33;;;;;;;;;;;;;;;14.31;71.74;101604.19;7361532;19;20324;-67
2023/12/19 12:10:00;;;;;;;;;;;;;;;14.41;71.72;101618.84;7365254;19;19923;-67
2023/12/19 12:12:35;;;;;;;;;;;;;;;14.52;71.42;101607.19;7361122;19;20417;-67
2023/12/19 12:15:11;;;;;;;;;;;;;;;14.63;70.69;101601.69;7367205;19;20002;-67
2023/12/19 12:17:37;;;;;;;;;;;;;;;14.72;70.43;101600.59;7360763;19;19931;-67
2023/12/19 12:20:03;;;;;;;;;;;;;;;14.77;70.63;101607.44;7361028;19;19943;-67
2023/12/19 12:22:30;;;;;;;;;;;;;;;14.86;70.79;101610.75;7350628;19;19943;-67
2023/12/19 12:24:55;;;;;;;;;;;;;;;14.98;70.36;101605.16;7365955;19;19919;-67
2023/12/19 12:27:21;;;;;;;;;;;;;;;15.08;69.69;101604.00;7359286;19;19927;-67
2023/12/19 12:29:46;;;;;;;;;;;;;;;15.16;69.15;101604.69;7361435;19;19915;-67
2023/12/19 12:32:12;;;;;;;;;;;;;;;15.20;69.42;101608.94;7360992;19;19915;-67